createdAt,value
2023-01-08T00:00:51.148Z,9.65
2023-01-08T00:01:50.964Z,9.59
2023-01-08T00:02:50.995Z,9.58
2023-01-08T00:03:51.107Z,9.58
2023-01-08T00:04:50.933Z,9.54
2023-01-08T00:05:50.933Z,9.56
2023-01-08T00:06:50.908Z,9.54
2023-01-08T00:07:50.896Z,9.51
2023-01-08T00:08:50.877Z,9.53
2023-01-08T00:09:50.867Z,9.54
2023-01-08T00:10:50.873Z,9.53
2023-01-08T00:11:50.850Z,9.51
2023-01-08T00:12:50.841Z,9.50
2023-01-08T00:13:50.827Z,9.50
2023-01-08T00:14:50.818Z,9.44
2023-01-08T00:15:50.925Z,9.44
2023-01-08T00:16:50.939Z,9.41
2023-01-08T00:17:50.788Z,9.44
2023-01-08T00:18:50.766Z,9.43
2023-01-08T00:19:50.759Z,9.39
2023-01-08T00:20:50.768Z,9.35
2023-01-08T00:21:50.733Z,9.35
2023-01-08T00:22:50.722Z,9.32
2023-01-08T00:23:50.711Z,9.32
2023-01-08T00:24:50.707Z,9.32
2023-01-08T00:25:50.716Z,9.29
2023-01-08T00:26:50.678Z,9.31
2023-01-08T00:27:50.677Z,9.29
2023-01-08T00:28:50.662Z,9.29
2023-01-08T00:29:50.651Z,9.28
2023-01-08T00:30:50.681Z,9.25
2023-01-08T00:31:50.751Z,9.26
2023-01-08T00:32:50.613Z,9.26
2023-01-08T00:33:50.610Z,9.28
2023-01-08T00:34:50.589Z,9.29
2023-01-08T00:35:50.588Z,9.28
2023-01-08T00:36:50.567Z,9.26
2023-01-08T00:37:50.560Z,9.26
2023-01-08T00:38:50.555Z,9.23
2023-01-08T00:39:50.541Z,9.22
2023-01-08T00:40:50.540Z,9.17
2023-01-08T00:41:50.518Z,9.15
2023-01-08T00:42:50.504Z,9.13
2023-01-08T00:43:50.493Z,9.13
2023-01-08T00:44:50.484Z,9.11
2023-01-08T00:45:50.537Z,9.13
2023-01-08T00:46:50.455Z,9.14
2023-01-08T00:47:50.571Z,9.15
2023-01-08T00:48:50.443Z,9.17
2023-01-08T00:49:50.446Z,9.21
2023-01-08T00:50:50.429Z,9.18
2023-01-08T00:51:50.407Z,9.14
2023-01-08T00:52:50.399Z,9.11
2023-01-08T00:53:50.386Z,9.11
2023-01-08T00:54:50.381Z,9.08
2023-01-08T00:55:50.369Z,9.06
2023-01-08T00:56:50.360Z,9.06
2023-01-08T00:57:50.366Z,9.08
2023-01-08T00:58:50.336Z,9.07
2023-01-08T00:59:50.323Z,9.07
2023-01-08T01:00:50.360Z,9.08
2023-01-08T01:01:50.495Z,9.08
2023-01-08T01:02:50.289Z,9.08
2023-01-08T01:03:50.482Z,9.04
2023-01-08T01:04:50.314Z,9.04
2023-01-08T01:05:50.254Z,9.04
2023-01-08T01:06:50.244Z,9.01
2023-01-08T01:07:50.239Z,8.96
2023-01-08T01:08:50.229Z,8.93
2023-01-08T01:09:50.203Z,8.95
2023-01-08T01:10:50.197Z,8.96
2023-01-08T01:11:50.179Z,8.93
2023-01-08T01:12:50.167Z,8.89
2023-01-08T01:13:50.163Z,8.86
2023-01-08T01:14:50.159Z,8.89
2023-01-08T01:15:50.135Z,8.86
2023-01-08T01:16:50.223Z,8.86
2023-01-08T01:17:50.112Z,8.86
2023-01-08T01:18:50.101Z,8.85
2023-01-08T01:19:50.218Z,8.83
2023-01-08T01:20:50.080Z,8.83
2023-01-08T01:21:50.071Z,8.86
2023-01-08T01:22:50.066Z,8.86
2023-01-08T01:23:50.081Z,8.89
2023-01-08T01:24:50.044Z,8.89
2023-01-08T01:25:50.043Z,8.88
2023-01-08T01:26:50.063Z,8.83
2023-01-08T01:27:50.000Z,8.78
2023-01-08T01:28:49.998Z,8.78
2023-01-08T01:29:49.990Z,8.77
2023-01-08T01:30:50.052Z,8.74
2023-01-08T01:31:49.960Z,8.74
2023-01-08T01:32:49.962Z,8.72
2023-01-08T01:33:49.941Z,8.71
2023-01-08T01:34:49.931Z,8.75
2023-01-08T01:35:50.045Z,8.75
2023-01-08T01:36:49.901Z,8.75
2023-01-08T01:37:49.891Z,8.70
2023-01-08T01:38:49.882Z,8.63
2023-01-08T01:39:49.891Z,8.62
2023-01-08T01:40:49.858Z,8.62
2023-01-08T01:41:49.844Z,8.63
2023-01-08T01:42:49.846Z,8.59
2023-01-08T01:43:49.845Z,8.55
2023-01-08T01:44:49.815Z,8.53
2023-01-08T01:45:49.851Z,8.50
2023-01-08T01:46:49.802Z,8.52
2023-01-08T01:47:49.785Z,8.52
2023-01-08T01:48:49.773Z,8.46
2023-01-08T01:49:49.759Z,8.44
2023-01-08T01:50:49.760Z,8.44
2023-01-08T01:51:49.864Z,8.42
2023-01-08T01:52:49.726Z,8.42
2023-01-08T01:53:49.721Z,8.49
2023-01-08T01:54:49.708Z,8.49
2023-01-08T01:55:49.694Z,8.46
2023-01-08T01:56:49.687Z,8.38
2023-01-08T01:57:49.668Z,8.37
2023-01-08T01:58:49.662Z,8.34
2023-01-08T01:59:49.650Z,8.30
2023-01-08T02:00:49.631Z,8.27
2023-01-08T02:01:49.785Z,8.28
2023-01-08T02:02:49.619Z,8.27
2023-01-08T02:03:49.667Z,8.31
2023-01-08T02:04:49.592Z,8.34
2023-01-08T02:05:49.584Z,8.39
2023-01-08T02:06:49.583Z,8.37
2023-01-08T02:07:49.683Z,8.34
2023-01-08T02:08:49.544Z,8.34
2023-01-08T02:09:49.539Z,8.37
2023-01-08T02:10:49.523Z,8.39
2023-01-08T02:11:49.510Z,8.37
2023-01-08T02:12:49.503Z,8.37
2023-01-08T02:13:49.494Z,8.31
2023-01-08T02:14:49.482Z,8.31
2023-01-08T02:15:49.472Z,8.27
2023-01-08T02:16:49.498Z,8.23
2023-01-08T02:17:49.452Z,8.25
2023-01-08T02:18:49.437Z,8.27
2023-01-08T02:19:49.428Z,8.25
2023-01-08T02:20:49.415Z,8.28
2023-01-08T02:21:49.411Z,8.31
2023-01-08T02:22:49.412Z,8.30
2023-01-08T02:23:49.502Z,8.28
2023-01-08T02:24:49.366Z,8.23
2023-01-08T02:25:49.353Z,8.20
2023-01-08T02:26:49.346Z,8.18
2023-01-08T02:27:49.333Z,8.16
2023-01-08T02:28:49.325Z,8.15
2023-01-08T02:29:49.308Z,8.15
2023-01-08T02:30:49.342Z,8.12
2023-01-08T02:31:49.294Z,8.12
2023-01-08T02:32:49.282Z,8.11
2023-01-08T02:33:49.271Z,8.08
2023-01-08T02:34:49.250Z,8.04
2023-01-08T02:35:49.246Z,8.04
2023-01-08T02:36:49.231Z,8.01
2023-01-08T02:37:49.216Z,8.00
2023-01-08T02:38:49.217Z,7.95
2023-01-08T02:39:49.336Z,7.93
2023-01-08T02:40:49.179Z,7.91
2023-01-08T02:41:49.174Z,7.91
2023-01-08T02:42:49.169Z,7.93
2023-01-08T02:43:49.151Z,7.94
2023-01-08T02:44:49.149Z,7.94
2023-01-08T02:45:49.169Z,7.94
2023-01-08T02:46:49.118Z,7.93
2023-01-08T02:47:49.110Z,7.93
2023-01-08T02:48:49.093Z,7.93
2023-01-08T02:49:49.077Z,7.93
2023-01-08T02:50:49.075Z,7.93
2023-01-08T02:51:49.053Z,7.94
2023-01-08T02:52:49.048Z,7.97
2023-01-08T02:53:49.034Z,8.00
2023-01-08T02:54:49.037Z,7.98
2023-01-08T02:55:49.128Z,7.97
2023-01-08T02:56:49.012Z,7.97
2023-01-08T02:57:48.998Z,7.97
2023-01-08T02:58:48.974Z,7.98
2023-01-08T02:59:48.966Z,7.95
2023-01-08T03:00:48.956Z,7.94
2023-01-08T03:01:49.108Z,7.93
2023-01-08T03:02:50.605Z,7.95
2023-01-08T03:03:48.965Z,7.94
2023-01-08T03:04:48.902Z,7.95
2023-01-08T03:05:48.902Z,7.91
2023-01-08T03:06:48.879Z,7.87
2023-01-08T03:07:48.873Z,7.90
2023-01-08T03:08:48.869Z,7.86
2023-01-08T03:09:48.850Z,7.83
2023-01-08T03:10:48.854Z,7.82
2023-01-08T03:11:48.937Z,7.80
2023-01-08T03:12:48.812Z,7.77
2023-01-08T03:13:48.813Z,7.77
2023-01-08T03:14:48.792Z,7.79
2023-01-08T03:15:48.775Z,7.77
2023-01-08T03:16:48.902Z,7.77
2023-01-08T03:17:48.769Z,7.77
2023-01-08T03:18:48.747Z,7.75
2023-01-08T03:19:48.742Z,7.72
2023-01-08T03:20:48.740Z,7.72
2023-01-08T03:21:48.713Z,7.72
2023-01-08T03:22:48.698Z,7.75
2023-01-08T03:23:48.694Z,7.75
2023-01-08T03:24:48.676Z,7.73
2023-01-08T03:25:48.669Z,7.73
2023-01-08T03:26:48.651Z,7.73
2023-01-08T03:27:48.783Z,7.67
2023-01-08T03:28:48.639Z,7.62
2023-01-08T03:29:48.619Z,7.61
2023-01-08T03:30:48.676Z,7.60
2023-01-08T03:31:48.604Z,7.64
2023-01-08T03:32:48.594Z,7.67
2023-01-08T03:33:48.576Z,7.65
2023-01-08T03:34:48.557Z,7.64
2023-01-08T03:35:48.551Z,7.65
2023-01-08T03:36:48.536Z,7.68
2023-01-08T03:37:48.530Z,7.67
2023-01-08T03:38:48.519Z,7.67
2023-01-08T03:39:48.499Z,7.67
2023-01-08T03:40:48.503Z,7.68
2023-01-08T03:41:48.481Z,7.67
2023-01-08T03:42:48.473Z,7.65
2023-01-08T03:43:48.597Z,7.64
2023-01-08T03:44:48.455Z,7.60
2023-01-08T03:45:48.456Z,7.61
2023-01-08T03:46:48.425Z,7.60
2023-01-08T03:47:48.415Z,7.60
2023-01-08T03:48:48.408Z,7.60
2023-01-08T03:49:48.388Z,7.58
2023-01-08T03:50:48.374Z,7.55
2023-01-08T03:51:48.384Z,7.55
2023-01-08T03:52:48.357Z,7.55
2023-01-08T03:53:48.345Z,7.55
2023-01-08T03:54:48.332Z,7.54
2023-01-08T03:55:48.322Z,7.50
2023-01-08T03:56:48.313Z,7.52
2023-01-08T03:57:48.291Z,7.54
2023-01-08T03:58:48.317Z,7.52
2023-01-08T03:59:48.403Z,7.50
2023-01-08T04:00:48.265Z,7.50
2023-01-08T04:01:48.393Z,7.50
2023-01-08T04:02:48.239Z,7.49
2023-01-08T04:03:48.228Z,7.46
2023-01-08T04:04:48.212Z,7.44
2023-01-08T04:05:48.199Z,7.43
2023-01-08T04:06:48.196Z,7.43
2023-01-08T04:07:48.176Z,7.43
2023-01-08T04:08:48.188Z,7.46
2023-01-08T04:09:48.160Z,7.46
2023-01-08T04:10:48.148Z,7.46
2023-01-08T04:11:48.178Z,7.49
2023-01-08T04:12:48.142Z,7.52
2023-01-08T04:13:48.115Z,7.49
2023-01-08T04:14:48.097Z,7.50
2023-01-08T04:15:48.242Z,7.50
2023-01-08T04:16:48.080Z,7.50
2023-01-08T04:17:48.085Z,7.50
2023-01-08T04:18:48.054Z,7.52
2023-01-08T04:19:48.037Z,7.52
2023-01-08T04:20:48.037Z,7.50
2023-01-08T04:21:48.026Z,7.47
2023-01-08T04:22:48.013Z,7.49
2023-01-08T04:23:47.999Z,7.49
2023-01-08T04:24:48.006Z,7.46
2023-01-08T04:25:47.980Z,7.46
2023-01-08T04:26:47.958Z,7.44
2023-01-08T04:27:47.950Z,7.46
2023-01-08T04:28:47.958Z,7.44
2023-01-08T04:29:47.939Z,7.42
2023-01-08T04:30:47.962Z,7.40
2023-01-08T04:31:48.022Z,7.40
2023-01-08T04:32:47.891Z,7.42
2023-01-08T04:33:47.901Z,7.44
2023-01-08T04:34:47.883Z,7.43
2023-01-08T04:35:47.861Z,7.42
2023-01-08T04:36:47.847Z,7.40
2023-01-08T04:37:47.837Z,7.40
2023-01-08T04:38:47.827Z,7.39
2023-01-08T04:39:47.806Z,7.37
2023-01-08T04:40:47.809Z,7.37
2023-01-08T04:41:47.788Z,7.39
2023-01-08T04:42:47.773Z,7.42
2023-01-08T04:43:47.777Z,7.39
2023-01-08T04:44:47.773Z,7.37
2023-01-08T04:45:47.743Z,7.40
2023-01-08T04:46:47.730Z,7.43
2023-01-08T04:47:47.839Z,7.43
2023-01-08T04:48:47.711Z,7.43
2023-01-08T04:49:47.826Z,7.40
2023-01-08T04:50:47.684Z,7.40
2023-01-08T04:51:47.683Z,7.42
2023-01-08T04:52:47.664Z,7.40
2023-01-08T04:53:47.666Z,7.44
2023-01-08T04:54:47.651Z,7.42
2023-01-08T04:55:47.635Z,7.42
2023-01-08T04:56:47.625Z,7.43
2023-01-08T04:57:47.611Z,7.43
2023-01-08T04:58:47.606Z,7.43
2023-01-08T04:59:47.595Z,7.40
2023-01-08T05:00:47.574Z,7.39
2023-01-08T05:01:47.721Z,7.36
2023-01-08T05:02:47.782Z,7.33
2023-01-08T05:03:47.654Z,7.33
2023-01-08T05:04:47.537Z,7.33
2023-01-08T05:05:49.841Z,7.34
2023-01-08T05:06:47.510Z,7.34
2023-01-08T05:07:47.501Z,7.34
2023-01-08T05:08:47.486Z,7.37
2023-01-08T05:09:47.481Z,7.40
2023-01-08T05:10:47.468Z,7.42
2023-01-08T05:11:47.451Z,7.43
2023-01-08T05:12:47.469Z,7.47
2023-01-08T05:13:47.423Z,7.49
2023-01-08T05:14:47.421Z,7.46
2023-01-08T05:15:47.478Z,7.46
2023-01-08T05:16:47.391Z,7.44
2023-01-08T05:17:47.385Z,7.40
2023-01-08T05:18:47.372Z,7.42
2023-01-08T05:19:47.481Z,7.42
2023-01-08T05:20:47.355Z,7.43
2023-01-08T05:21:47.338Z,7.46
2023-01-08T05:22:47.327Z,7.44
2023-01-08T05:23:47.323Z,7.46
2023-01-08T05:24:47.305Z,7.46
2023-01-08T05:25:47.305Z,7.47
2023-01-08T05:26:47.274Z,7.47
2023-01-08T05:27:47.264Z,7.46
2023-01-08T05:28:47.258Z,7.42
2023-01-08T05:29:47.246Z,7.40
2023-01-08T05:30:47.282Z,7.40
2023-01-08T05:31:47.233Z,7.39
2023-01-08T05:32:47.209Z,7.39
2023-01-08T05:33:47.201Z,7.37
2023-01-08T05:34:47.184Z,7.34
2023-01-08T05:35:47.303Z,7.31
2023-01-08T05:36:47.172Z,7.33
2023-01-08T05:37:47.156Z,7.33
2023-01-08T05:38:47.144Z,7.34
2023-01-08T05:39:47.147Z,7.34
2023-01-08T05:40:47.128Z,7.34
2023-01-08T05:41:47.116Z,7.37
2023-01-08T05:42:47.111Z,7.37
2023-01-08T05:43:47.089Z,7.39
2023-01-08T05:44:47.083Z,7.36
2023-01-08T05:45:47.059Z,7.34
2023-01-08T05:46:47.054Z,7.36
2023-01-08T05:47:47.055Z,7.37
2023-01-08T05:48:47.044Z,7.39
2023-01-08T05:49:47.036Z,7.43
2023-01-08T05:50:47.008Z,7.43
2023-01-08T05:51:47.111Z,7.44
2023-01-08T05:52:46.987Z,7.43
2023-01-08T05:53:46.973Z,7.43
2023-01-08T05:54:46.967Z,7.42
2023-01-08T05:55:46.950Z,7.42
2023-01-08T05:56:46.934Z,7.43
2023-01-08T05:57:46.933Z,7.46
2023-01-08T05:58:46.912Z,7.46
2023-01-08T05:59:46.897Z,7.49
2023-01-08T06:00:46.891Z,7.50
2023-01-08T06:01:46.969Z,7.54
2023-01-08T06:02:46.949Z,7.55
2023-01-08T06:03:46.943Z,7.57
2023-01-08T06:04:46.847Z,7.58
2023-01-08T06:05:46.835Z,7.55
2023-01-08T06:06:46.822Z,7.55
2023-01-08T06:07:46.931Z,7.55
2023-01-08T06:08:46.810Z,7.55
2023-01-08T06:09:46.801Z,7.55
2023-01-08T06:10:46.787Z,7.55
2023-01-08T06:11:46.763Z,7.55
2023-01-08T06:12:46.749Z,7.57
2023-01-08T06:13:46.743Z,7.58
2023-01-08T06:14:46.734Z,7.57
2023-01-08T06:15:46.759Z,7.60
2023-01-08T06:16:46.712Z,7.58
2023-01-08T06:17:46.696Z,7.58
2023-01-08T06:18:46.686Z,7.60
2023-01-08T06:19:46.671Z,7.62
2023-01-08T06:20:46.656Z,7.64
2023-01-08T06:21:46.655Z,7.67
2023-01-08T06:22:46.640Z,7.65
2023-01-08T06:23:46.751Z,7.64
2023-01-08T06:24:46.619Z,7.61
2023-01-08T06:25:46.607Z,7.62
2023-01-08T06:26:46.590Z,7.61
2023-01-08T06:27:46.580Z,7.60
2023-01-08T06:28:46.576Z,7.61
2023-01-08T06:29:46.558Z,7.61
2023-01-08T06:30:46.552Z,7.62
2023-01-08T06:31:46.613Z,7.64
2023-01-08T06:32:46.534Z,7.61
2023-01-08T06:33:46.513Z,7.64
2023-01-08T06:34:46.514Z,7.64
2023-01-08T06:35:46.507Z,7.64
2023-01-08T06:36:46.476Z,7.65
2023-01-08T06:37:46.473Z,7.67
2023-01-08T06:38:46.458Z,7.65
2023-01-08T06:39:46.573Z,7.67
2023-01-08T06:40:46.439Z,7.67
2023-01-08T06:41:46.444Z,7.68
2023-01-08T06:42:46.420Z,7.68
2023-01-08T06:43:46.428Z,7.65
2023-01-08T06:44:46.393Z,7.65
2023-01-08T06:45:46.391Z,7.64
2023-01-08T06:46:46.434Z,7.65
2023-01-08T06:47:46.368Z,7.67
2023-01-08T06:48:46.361Z,7.68
2023-01-08T06:49:46.329Z,7.70
2023-01-08T06:50:46.317Z,7.70
2023-01-08T06:51:46.316Z,7.70
2023-01-08T06:52:46.306Z,7.73
2023-01-08T06:53:46.312Z,7.77
2023-01-08T06:54:46.295Z,7.77
2023-01-08T06:55:46.293Z,7.77
2023-01-08T06:56:53.779Z,7.77
2023-01-08T06:57:46.263Z,7.79
2023-01-08T06:58:46.238Z,7.80
2023-01-08T06:59:46.217Z,7.79
2023-01-08T07:00:46.200Z,7.75
2023-01-08T07:01:46.376Z,7.75
2023-01-08T07:02:46.335Z,7.73
2023-01-08T07:03:46.295Z,7.75
2023-01-08T07:04:46.175Z,7.75
2023-01-08T07:05:46.152Z,7.72
2023-01-08T07:06:46.132Z,7.73
2023-01-08T07:07:48.122Z,7.76
2023-01-08T07:08:46.115Z,7.77
2023-01-08T07:09:46.106Z,7.79
2023-01-08T07:10:46.114Z,7.77
2023-01-08T07:11:46.249Z,7.77
2023-01-08T07:12:46.068Z,7.79
2023-01-08T07:13:48.076Z,7.83
2023-01-08T07:14:46.048Z,7.83
2023-01-08T07:15:46.128Z,7.83
2023-01-08T07:16:48.020Z,7.86
2023-01-08T07:17:46.015Z,7.86
2023-01-08T07:18:46.003Z,7.86
2023-01-08T07:19:45.985Z,7.90
2023-01-08T07:20:45.981Z,7.87
2023-01-08T07:21:45.983Z,7.87
2023-01-08T07:22:45.978Z,7.90
2023-01-08T07:23:45.944Z,7.87
2023-01-08T07:24:45.934Z,7.90
2023-01-08T07:25:45.915Z,7.93
2023-01-08T07:26:45.909Z,7.93
2023-01-08T07:27:45.919Z,7.93
2023-01-08T07:28:45.898Z,7.95
2023-01-08T07:29:45.873Z,7.94
2023-01-08T07:30:47.858Z,7.95
2023-01-08T07:31:45.893Z,7.97
2023-01-08T07:32:45.847Z,8.00
2023-01-08T07:33:45.833Z,7.98
2023-01-08T07:34:45.814Z,8.00
2023-01-08T07:35:45.801Z,8.00
2023-01-08T07:36:45.786Z,8.03
2023-01-08T07:37:45.787Z,8.03
2023-01-08T07:38:45.764Z,8.04
2023-01-08T07:39:45.756Z,8.05
2023-01-08T07:40:45.747Z,8.05
2023-01-08T07:41:45.745Z,8.05
2023-01-08T07:42:45.776Z,8.08
2023-01-08T07:43:45.835Z,8.05
2023-01-08T07:44:45.708Z,8.03
2023-01-08T07:45:45.691Z,8.03
2023-01-08T07:46:45.745Z,8.04
2023-01-08T07:47:45.663Z,8.08
2023-01-08T07:48:45.657Z,8.09
2023-01-08T07:49:45.643Z,8.12
2023-01-08T07:50:45.639Z,8.13
2023-01-08T07:51:45.616Z,8.13
2023-01-08T07:52:45.628Z,8.13
2023-01-08T07:53:45.600Z,8.13
2023-01-08T07:54:45.594Z,8.12
2023-01-08T07:55:45.577Z,8.13
2023-01-08T07:56:45.559Z,8.13
2023-01-08T07:57:45.553Z,8.15
2023-01-08T07:58:45.549Z,8.15
2023-01-08T07:59:45.639Z,8.18
2023-01-08T08:00:45.534Z,8.18
2023-01-08T08:01:45.652Z,8.20
2023-01-08T08:02:45.628Z,8.20
2023-01-08T08:03:45.475Z,8.25
2023-01-08T08:04:45.511Z,8.25
2023-01-08T08:05:45.456Z,8.30
2023-01-08T08:06:45.492Z,8.30
2023-01-08T08:07:45.430Z,8.25
2023-01-08T08:08:45.497Z,8.25
2023-01-08T08:09:45.420Z,8.28
2023-01-08T08:10:45.403Z,8.31
2023-01-08T08:11:45.392Z,8.33
2023-01-08T08:12:45.409Z,8.30
2023-01-08T08:13:45.369Z,8.30
2023-01-08T08:14:45.456Z,8.30
2023-01-08T08:15:45.506Z,8.34
2023-01-08T08:16:45.335Z,8.38
2023-01-08T08:17:45.321Z,8.42
2023-01-08T08:18:45.336Z,8.41
2023-01-08T08:19:45.317Z,8.37
2023-01-08T08:20:45.318Z,8.37
2023-01-08T08:21:45.275Z,8.34
2023-01-08T08:22:45.312Z,8.37
2023-01-08T08:23:45.249Z,8.39
2023-01-08T08:24:45.259Z,8.39
2023-01-08T08:25:45.228Z,8.34
2023-01-08T08:26:45.230Z,8.33
2023-01-08T08:27:45.201Z,8.33
2023-01-08T08:28:45.246Z,8.33
2023-01-08T08:29:45.184Z,8.34
2023-01-08T08:30:45.204Z,8.38
2023-01-08T08:31:45.300Z,8.37
2023-01-08T08:32:45.162Z,8.33
2023-01-08T08:33:45.134Z,8.31
2023-01-08T08:34:45.129Z,8.28
2023-01-08T08:35:45.114Z,8.28
2023-01-08T08:36:45.159Z,8.30
2023-01-08T08:37:45.095Z,8.30
2023-01-08T08:38:45.157Z,8.30
2023-01-08T08:39:45.066Z,8.30
2023-01-08T08:40:45.078Z,8.33
2023-01-08T08:41:45.046Z,8.37
2023-01-08T08:42:45.103Z,8.38
2023-01-08T08:43:45.025Z,8.41
2023-01-08T08:44:45.064Z,8.44
2023-01-08T08:45:45.005Z,8.47
2023-01-08T08:46:45.122Z,8.49
2023-01-08T08:47:45.097Z,8.47
2023-01-08T08:48:44.979Z,8.46
2023-01-08T08:49:44.957Z,8.42
2023-01-08T08:50:44.955Z,8.44
2023-01-08T08:51:44.938Z,8.46
2023-01-08T08:52:44.984Z,8.47
2023-01-08T08:53:44.912Z,8.49
2023-01-08T08:54:44.969Z,8.44
2023-01-08T08:55:44.897Z,8.44
2023-01-08T08:56:44.890Z,8.44
2023-01-08T08:57:44.867Z,8.47
2023-01-08T08:58:44.894Z,8.50
2023-01-08T08:59:44.856Z,8.52
2023-01-08T09:00:44.921Z,8.52
2023-01-08T09:01:44.996Z,8.49
2023-01-08T09:02:44.996Z,8.50
2023-01-08T09:03:44.928Z,8.53
2023-01-08T09:04:44.790Z,8.55
2023-01-08T09:05:44.782Z,8.56
2023-01-08T09:06:44.787Z,8.52
2023-01-08T09:07:44.765Z,8.53
2023-01-08T09:08:44.789Z,8.56
2023-01-08T09:09:44.735Z,8.55
2023-01-08T09:10:44.741Z,8.52
2023-01-08T09:11:44.714Z,8.55
2023-01-08T09:12:44.699Z,8.56
2023-01-08T09:13:44.695Z,8.59
2023-01-08T09:14:44.709Z,8.63
2023-01-08T09:15:44.671Z,8.67
2023-01-08T09:16:44.670Z,8.68
2023-01-08T09:17:44.644Z,8.71
2023-01-08T09:18:44.626Z,8.75
2023-01-08T09:19:44.743Z,8.80
2023-01-08T09:20:44.608Z,8.85
2023-01-08T09:21:44.590Z,8.88
2023-01-08T09:22:44.616Z,8.92
2023-01-08T09:23:44.573Z,8.96
2023-01-08T09:24:44.574Z,8.98
2023-01-08T09:25:44.564Z,8.98
2023-01-08T09:26:44.570Z,8.93
2023-01-08T09:27:44.531Z,8.93
2023-01-08T09:28:44.532Z,8.95
2023-01-08T09:29:44.503Z,8.93
2023-01-08T09:30:44.595Z,8.93
2023-01-08T09:31:44.584Z,8.95
2023-01-08T09:32:44.476Z,8.95
2023-01-08T09:33:44.487Z,8.90
2023-01-08T09:34:44.461Z,8.89
2023-01-08T09:35:44.562Z,8.89
2023-01-08T09:36:44.428Z,8.89
2023-01-08T09:37:44.420Z,8.89
2023-01-08T09:38:44.404Z,8.89
2023-01-08T09:39:51.034Z,8.88
2023-01-08T09:40:44.397Z,8.89
2023-01-08T09:41:44.373Z,8.90
2023-01-08T09:42:44.364Z,8.90
2023-01-08T09:43:44.355Z,8.93
2023-01-08T09:44:44.343Z,8.98
2023-01-08T09:45:44.326Z,8.98
2023-01-08T09:46:44.387Z,8.98
2023-01-08T09:47:44.314Z,8.99
2023-01-08T09:48:44.296Z,8.99
2023-01-08T09:49:44.300Z,8.96
2023-01-08T09:50:44.282Z,8.95
2023-01-08T09:51:44.385Z,8.93
2023-01-08T09:52:44.248Z,8.95
2023-01-08T09:53:44.252Z,8.98
2023-01-08T09:54:44.233Z,8.96
2023-01-08T09:55:44.225Z,8.95
2023-01-08T09:56:44.233Z,8.96
2023-01-08T09:57:44.198Z,8.96
2023-01-08T09:58:44.182Z,8.98
2023-01-08T09:59:44.177Z,9.01
2023-01-08T10:00:44.237Z,9.04
2023-01-08T10:01:44.208Z,9.03
2023-01-08T10:02:44.222Z,9.03
2023-01-08T10:03:44.125Z,9.04
2023-01-08T10:04:44.122Z,9.07
2023-01-08T10:05:44.105Z,9.07
2023-01-08T10:06:44.093Z,9.08
2023-01-08T10:07:44.212Z,9.08
2023-01-08T10:09:44.061Z,9.10
2023-01-08T10:10:44.048Z,9.13
2023-01-08T10:11:44.045Z,9.18
2023-01-08T10:12:44.033Z,9.17
2023-01-08T10:13:44.026Z,9.13
2023-01-08T10:14:44.014Z,9.13
2023-01-08T10:15:43.999Z,9.11
2023-01-08T10:16:43.990Z,9.10
2023-01-08T10:17:43.972Z,9.13
2023-01-08T10:18:43.965Z,9.13
2023-01-08T10:19:43.959Z,9.14
2023-01-08T10:20:43.944Z,9.13
2023-01-08T10:21:43.941Z,9.15
2023-01-08T10:22:43.918Z,9.15
2023-01-08T10:23:44.034Z,9.13
2023-01-08T10:24:43.902Z,9.14
2023-01-08T10:25:43.891Z,9.13
2023-01-08T10:26:43.869Z,9.11
2023-01-08T10:27:43.864Z,9.13
2023-01-08T10:28:43.859Z,9.10
2023-01-08T10:29:43.860Z,9.08
2023-01-08T10:30:43.827Z,9.11
2023-01-08T10:31:43.889Z,9.10
2023-01-08T10:32:43.807Z,9.07
2023-01-08T10:33:43.832Z,9.11
2023-01-08T10:34:43.784Z,9.10
2023-01-08T10:35:43.781Z,9.13
2023-01-08T10:36:43.763Z,9.14
2023-01-08T10:37:43.759Z,9.14
2023-01-08T10:38:43.742Z,9.15
2023-01-08T10:39:43.765Z,9.13
2023-01-08T10:40:43.740Z,9.11
2023-01-08T10:41:43.719Z,9.11
2023-01-08T10:42:43.694Z,9.10
2023-01-08T10:43:43.694Z,9.07
2023-01-08T10:44:43.675Z,9.07
2023-01-08T10:45:43.730Z,9.08
2023-01-08T10:46:43.663Z,9.08
2023-01-08T10:47:43.651Z,9.10
2023-01-08T10:48:43.630Z,9.11
2023-01-08T10:49:43.622Z,9.10
2023-01-08T10:50:43.613Z,9.08
2023-01-08T10:51:43.604Z,9.06
2023-01-08T10:52:43.590Z,9.04
2023-01-08T10:53:43.585Z,9.07
2023-01-08T10:54:43.574Z,9.04
2023-01-08T10:55:43.581Z,9.08
2023-01-08T10:56:43.542Z,9.11
2023-01-08T10:57:43.534Z,9.13
2023-01-08T10:58:43.558Z,9.17
2023-01-08T10:59:43.511Z,9.22
2023-01-08T11:00:43.547Z,9.26
2023-01-08T11:01:43.548Z,9.29
2023-01-08T11:02:43.509Z,9.31
2023-01-08T11:03:43.464Z,9.32
2023-01-08T11:04:43.454Z,9.32
2023-01-08T11:05:43.445Z,9.31
2023-01-08T11:06:43.442Z,9.29
2023-01-08T11:07:49.431Z,9.29
2023-01-08T11:08:43.408Z,9.33
2023-01-08T11:09:43.404Z,9.33
2023-01-08T11:10:43.399Z,9.31
2023-01-08T11:11:43.527Z,9.32
2023-01-08T11:12:43.375Z,9.33
2023-01-08T11:13:43.360Z,9.31
2023-01-08T11:14:43.354Z,9.35
2023-01-08T11:15:43.336Z,9.39
2023-01-08T11:16:43.319Z,9.40
2023-01-08T11:17:43.317Z,9.47
2023-01-08T11:18:43.301Z,9.54
2023-01-08T11:19:49.295Z,9.54
2023-01-08T11:20:43.281Z,9.56
2023-01-08T11:21:43.261Z,9.61
2023-01-08T11:22:43.252Z,9.68
2023-01-08T11:23:43.242Z,9.74
2023-01-08T11:24:43.236Z,9.66
2023-01-08T11:25:43.224Z,9.61
2023-01-08T11:26:43.216Z,9.62
2023-01-08T11:27:43.243Z,9.68
2023-01-08T11:28:43.193Z,9.71
2023-01-08T11:29:43.175Z,9.62
2023-01-08T11:30:43.164Z,9.56
2023-01-08T11:31:43.226Z,9.59
2023-01-08T11:32:43.148Z,9.62
2023-01-08T11:33:43.141Z,9.62
2023-01-08T11:34:49.132Z,9.62
2023-01-08T11:35:43.118Z,9.65
2023-01-08T11:36:43.111Z,9.69
2023-01-08T11:37:43.090Z,9.77
2023-01-08T11:38:43.076Z,9.76
2023-01-08T11:39:43.073Z,9.66
2023-01-08T11:40:43.077Z,9.62
2023-01-08T11:41:43.046Z,9.58
2023-01-08T11:42:43.041Z,9.64
2023-01-08T11:43:49.049Z,9.64
2023-01-08T11:44:43.016Z,9.66
2023-01-08T11:45:43.078Z,9.64
2023-01-08T11:46:43.001Z,9.58
2023-01-08T11:47:42.978Z,9.53
2023-01-08T11:48:42.972Z,9.49
2023-01-08T11:49:42.963Z,9.47
2023-01-08T11:50:48.954Z,9.51
2023-01-08T11:51:48.952Z,9.53
2023-01-08T11:52:42.927Z,9.56
2023-01-08T11:53:42.907Z,9.56
2023-01-08T11:54:42.920Z,9.59
2023-01-08T11:55:42.896Z,9.58
2023-01-08T11:56:42.885Z,9.53
2023-01-08T11:57:42.878Z,9.56
2023-01-08T11:58:42.862Z,9.61
2023-01-08T11:59:42.881Z,9.66
2023-01-08T12:00:48.845Z,9.69
2023-01-08T12:01:42.994Z,9.69
2023-01-08T12:02:42.809Z,9.72
2023-01-08T12:03:42.804Z,9.77
2023-01-08T12:04:42.785Z,9.66
2023-01-08T12:05:42.786Z,9.68
2023-01-08T12:06:42.765Z,9.69
2023-01-08T12:07:42.756Z,9.72
2023-01-08T12:08:42.747Z,9.77
2023-01-08T12:09:42.763Z,9.74
2023-01-08T12:10:42.740Z,9.74
2023-01-08T12:11:42.715Z,9.71
2023-01-08T12:12:42.701Z,9.66
2023-01-08T12:13:42.692Z,9.64
2023-01-08T12:14:42.678Z,9.61
2023-01-08T12:15:42.701Z,9.61
2023-01-08T12:16:42.762Z,9.65
2023-01-08T12:17:42.645Z,9.66
2023-01-08T12:18:42.634Z,9.71
2023-01-08T12:19:42.642Z,9.71
2023-01-08T12:20:42.615Z,9.74
2023-01-08T12:21:42.609Z,9.68
2023-01-08T12:22:42.592Z,9.65
2023-01-08T12:23:42.579Z,9.62
2023-01-08T12:24:42.574Z,9.65
2023-01-08T12:25:42.562Z,9.62
2023-01-08T12:26:42.549Z,9.59
2023-01-08T12:27:56.354Z,9.61
2023-01-08T12:28:42.540Z,9.62
2023-01-08T12:29:42.518Z,9.66
2023-01-08T12:30:42.513Z,9.77
2023-01-08T12:31:44.281Z,9.85
2023-01-08T12:32:42.483Z,9.94
2023-01-08T12:33:42.479Z,10.02
2023-01-08T12:34:42.453Z,10.01
2023-01-08T12:35:42.452Z,9.91
2023-01-08T12:36:42.441Z,9.85
2023-01-08T12:37:42.423Z,9.87
2023-01-08T12:38:42.417Z,9.91
2023-01-08T12:39:42.405Z,9.88
2023-01-08T12:40:42.387Z,9.91
2023-01-08T12:41:42.374Z,9.93
2023-01-08T12:42:46.736Z,9.87
2023-01-08T12:43:42.353Z,9.74
2023-01-08T12:44:42.348Z,9.69
2023-01-08T12:45:42.371Z,9.71
2023-01-08T12:46:42.334Z,9.74
2023-01-08T12:47:42.346Z,9.81
2023-01-08T12:48:50.232Z,9.81
2023-01-08T12:49:42.309Z,9.77
2023-01-08T12:50:42.290Z,9.72
2023-01-08T12:51:42.276Z,9.72
2023-01-08T12:52:42.268Z,9.76
2023-01-08T12:53:42.267Z,9.77
2023-01-08T12:54:42.242Z,9.77
2023-01-08T12:55:42.228Z,9.80
2023-01-08T12:56:42.214Z,9.81
2023-01-08T12:57:42.202Z,9.85
2023-01-08T12:58:42.198Z,9.87
2023-01-08T12:59:42.172Z,9.84
2023-01-08T13:00:42.162Z,9.85
2023-01-08T13:01:42.605Z,9.84
2023-01-08T13:02:42.201Z,9.87
2023-01-08T13:03:42.162Z,9.83
2023-01-08T13:04:42.142Z,9.77
2023-01-08T13:05:42.111Z,9.80
2023-01-08T13:06:42.107Z,9.76
2023-01-08T13:07:42.083Z,9.77
2023-01-08T13:08:42.081Z,9.77
2023-01-08T13:09:42.068Z,9.76
2023-01-08T13:10:42.061Z,9.80
2023-01-08T13:11:42.053Z,9.84
2023-01-08T13:12:42.029Z,9.85
2023-01-08T13:13:42.022Z,9.85
2023-01-08T13:14:42.020Z,9.87
2023-01-08T13:15:42.000Z,9.90
2023-01-08T13:16:42.175Z,9.91
2023-01-08T13:17:47.986Z,9.91
2023-01-08T13:18:41.968Z,9.88
2023-01-08T13:19:41.979Z,9.91